Weather at Tulsa International Airport

Public forecast

Using degrees Fahrenheit for public forecast. Weather courtesy of forecast.io.

Current aviation weather report (METAR) for Tulsa International Airport

Retrieved 2021/01/19 16:53 UTC (28 minutes ago):

KTUL 191653Z 35006KT 10SM FEW150 BKN250 06/M02 A3046 RMK AO2 SLP314 T00611017

Aviation forecast (TAF) for Tulsa International Airport

Retrieved 2021/01/19 12:22 UTC (5 hours ago):

TAF KTUL 191120Z 1912/2012 34006KT P6SM BKN120 FM192300 VRB04KT P6SM SCT150